createdAt,value
2022-09-13T00:01:51.714Z,17.20
2022-09-13T00:04:18.429Z,17.20
2022-09-13T00:06:45.138Z,17.20
2022-09-13T00:09:11.808Z,17.20
2022-09-13T00:11:43.003Z,17.10
2022-09-13T00:14:10.436Z,17.00
2022-09-13T00:16:39.424Z,17.00
2022-09-13T00:19:06.450Z,16.90
2022-09-13T00:21:33.261Z,17.00
2022-09-13T00:23:59.926Z,16.90
2022-09-13T00:26:28.334Z,16.90
2022-09-13T00:28:57.678Z,16.90
2022-09-13T00:31:30.288Z,16.90
2022-09-13T00:33:59.823Z,16.90
2022-09-13T00:36:26.841Z,16.80
2022-09-13T00:38:55.790Z,16.80
2022-09-13T00:41:23.350Z,16.80
2022-09-13T00:43:52.845Z,16.80
2022-09-13T00:46:40.655Z,16.80
2022-09-13T00:49:16.584Z,16.90
2022-09-13T00:51:50.829Z,16.90
2022-09-13T00:54:25.845Z,16.90
2022-09-13T00:56:58.286Z,16.80
2022-09-13T00:59:43.441Z,16.80
2022-09-13T01:02:10.803Z,16.80
2022-09-13T01:04:38.673Z,16.70
2022-09-13T01:07:09.308Z,16.80
2022-09-13T01:09:38.089Z,16.80
2022-09-13T01:12:10.115Z,16.80
2022-09-13T01:14:37.537Z,16.80
2022-09-13T01:17:06.969Z,16.80
2022-09-13T01:19:36.749Z,16.80
2022-09-13T01:22:22.360Z,16.80
2022-09-13T01:25:30.321Z,16.80
2022-09-13T01:27:56.973Z,16.90
2022-09-13T01:30:28.511Z,16.80
2022-09-13T01:32:58.084Z,16.80
2022-09-13T01:35:58.815Z,16.80
2022-09-13T01:38:44.970Z,16.80
2022-09-13T01:41:31.657Z,16.80
2022-09-13T01:43:58.278Z,16.80
2022-09-13T01:46:45.308Z,16.80
2022-09-13T01:49:14.226Z,16.80
2022-09-13T01:52:07.813Z,16.80
2022-09-13T01:54:50.911Z,16.90
2022-09-13T01:57:32.692Z,16.90
2022-09-13T02:00:12.981Z,16.90
2022-09-13T02:02:59.901Z,16.90
2022-09-13T02:05:47.816Z,16.90
2022-09-13T02:08:23.011Z,17.00
2022-09-13T02:10:54.828Z,17.00
2022-09-13T02:13:26.812Z,17.00
2022-09-13T02:15:59.820Z,17.00
2022-09-13T02:18:34.714Z,17.00
2022-09-13T02:21:27.075Z,17.00
2022-09-13T02:24:07.597Z,17.00
2022-09-13T02:26:39.682Z,16.90
2022-09-13T02:29:11.168Z,16.90
2022-09-13T02:31:44.505Z,17.00
2022-09-13T02:34:25.367Z,16.90
2022-09-13T02:36:55.368Z,16.90
2022-09-13T02:39:29.707Z,16.90
2022-09-13T02:41:58.771Z,17.00
2022-09-13T02:44:37.295Z,16.90
2022-09-13T02:47:11.976Z,17.00
2022-09-13T02:50:02.561Z,16.90
2022-09-13T02:52:54.239Z,16.90
2022-09-13T02:55:45.981Z,17.00
2022-09-13T02:58:17.710Z,16.90
2022-09-13T03:00:45.889Z,17.00
2022-09-13T03:03:17.867Z,17.00
2022-09-13T03:05:44.719Z,17.00
2022-09-13T03:08:14.373Z,17.00
2022-09-13T03:10:40.943Z,17.00
2022-09-13T03:13:27.836Z,17.00
2022-09-13T03:16:03.604Z,17.00
2022-09-13T03:18:36.297Z,17.00
2022-09-13T03:21:38.976Z,17.00
2022-09-13T03:24:22.583Z,17.00
2022-09-13T03:27:10.814Z,17.10
2022-09-13T03:29:48.891Z,17.00
2022-09-13T03:32:30.751Z,17.10
2022-09-13T03:35:00.218Z,17.10
2022-09-13T03:38:01.553Z,17.10
2022-09-13T03:40:45.735Z,17.10
2022-09-13T03:43:26.872Z,17.10
2022-09-13T03:45:59.604Z,17.10
2022-09-13T03:48:30.104Z,17.10
2022-09-13T03:50:59.080Z,17.20
2022-09-13T03:53:28.446Z,17.20
2022-09-13T03:55:55.182Z,17.20
2022-09-13T03:58:22.264Z,17.30
2022-09-13T04:00:49.159Z,17.30
2022-09-13T04:03:16.063Z,17.30
2022-09-13T04:05:42.792Z,17.20
2022-09-13T04:08:09.841Z,17.20
2022-09-13T04:10:37.728Z,17.20
2022-09-13T04:13:05.140Z,17.20
2022-09-13T04:15:31.972Z,17.20
2022-09-13T04:17:59.543Z,17.20
2022-09-13T04:20:26.214Z,17.20
2022-09-13T04:22:57.572Z,17.10
2022-09-13T04:25:24.891Z,17.20
2022-09-13T04:28:00.901Z,17.20
2022-09-13T04:30:28.417Z,17.20
2022-09-13T04:33:00.355Z,17.20
2022-09-13T04:35:29.765Z,17.10
2022-09-13T04:37:57.948Z,17.10
2022-09-13T04:40:25.379Z,17.20
2022-09-13T04:42:54.185Z,17.20
2022-09-13T04:45:20.827Z,17.20
2022-09-13T04:47:52.644Z,17.10
2022-09-13T04:50:26.945Z,17.20
2022-09-13T04:52:55.420Z,17.20
2022-09-13T04:55:22.545Z,17.20
2022-09-13T04:57:56.497Z,17.20
2022-09-13T05:00:25.061Z,17.30
2022-09-13T05:02:58.479Z,17.20
2022-09-13T05:05:29.213Z,17.20
2022-09-13T05:07:55.982Z,17.20
2022-09-13T05:10:25.154Z,17.20
2022-09-13T05:12:52.596Z,17.20
2022-09-13T05:15:19.254Z,17.20
2022-09-13T05:17:48.371Z,17.20
2022-09-13T05:20:15.116Z,17.20
2022-09-13T05:22:41.812Z,17.20
2022-09-13T05:25:08.760Z,17.10
2022-09-13T05:27:35.435Z,17.10
2022-09-13T05:30:02.137Z,17.10
2022-09-13T05:32:30.511Z,17.00
2022-09-13T05:34:57.224Z,17.10
2022-09-13T05:37:23.891Z,17.00
2022-09-13T05:40:10.282Z,17.10
2022-09-13T05:42:37.333Z,17.10
2022-09-13T05:45:06.798Z,17.10
2022-09-13T05:47:33.493Z,17.00
2022-09-13T05:50:10.313Z,17.00
2022-09-13T05:52:40.870Z,17.00
2022-09-13T05:55:10.299Z,17.10
2022-09-13T05:57:39.453Z,17.10
2022-09-13T06:00:06.699Z,17.10
2022-09-13T06:02:35.991Z,17.10
2022-09-13T06:05:02.736Z,17.00
2022-09-13T06:07:29.454Z,17.10
2022-09-13T06:09:58.626Z,17.10
2022-09-13T06:12:25.275Z,17.00
2022-09-13T06:14:51.936Z,17.10
2022-09-13T06:17:18.593Z,17.10
2022-09-13T06:19:45.272Z,17.20
2022-09-13T06:22:11.961Z,17.20
2022-09-13T06:24:38.917Z,17.30
2022-09-13T06:27:07.846Z,17.30
2022-09-13T06:29:34.533Z,17.30
2022-09-13T06:32:01.373Z,17.40
2022-09-13T06:34:31.246Z,17.40
2022-09-13T06:36:58.082Z,17.40
2022-09-13T06:39:24.710Z,17.40
2022-09-13T06:41:51.347Z,17.40
2022-09-13T06:44:20.315Z,17.50
2022-09-13T06:46:47.225Z,17.60
2022-09-13T06:49:13.939Z,17.60
2022-09-13T06:51:40.641Z,17.60
2022-09-13T06:54:07.452Z,17.70
2022-09-13T06:56:36.175Z,17.70
2022-09-13T06:59:05.693Z,17.80
2022-09-13T07:01:40.748Z,17.80
2022-09-13T07:06:38.833Z,17.90
2022-09-13T07:09:06.451Z,17.90
2022-09-13T07:11:36.058Z,17.90
2022-09-13T07:14:02.808Z,18.00
2022-09-13T07:16:31.541Z,18.00
2022-09-13T07:19:12.093Z,18.10
2022-09-13T07:21:38.851Z,18.10
2022-09-13T07:24:05.800Z,18.20
2022-09-13T07:26:32.552Z,18.20
2022-09-13T07:29:03.975Z,18.20
2022-09-13T07:31:41.998Z,18.20
2022-09-13T07:34:17.308Z,18.30
2022-09-13T07:36:46.756Z,18.30
2022-09-13T07:39:18.162Z,18.50
2022-09-13T07:41:47.225Z,18.70
2022-09-13T08:24:16.787Z,19.90
2022-09-13T08:26:44.364Z,19.80
2022-09-13T08:29:12.151Z,19.80
2022-09-13T08:31:41.311Z,19.90
2022-09-13T08:34:11.911Z,19.90
2022-09-13T08:36:38.738Z,20.00
2022-09-13T08:39:07.858Z,20.00
2022-09-13T08:41:40.386Z,20.00
2022-09-13T08:44:28.011Z,20.10
2022-09-13T08:47:06.459Z,20.20
2022-09-13T08:49:41.284Z,20.30
2022-09-13T08:52:28.577Z,20.50
2022-09-13T08:54:58.361Z,20.50
2022-09-13T08:57:51.658Z,20.60
2022-09-13T09:00:26.449Z,20.40
2022-09-13T09:05:29.636Z,20.60
2022-09-13T09:08:01.709Z,20.70
2022-09-13T09:10:30.177Z,20.70
2022-09-13T09:13:09.491Z,20.80
2022-09-13T09:20:59.957Z,21.20
2022-09-13T09:23:30.060Z,21.20
2022-09-13T09:26:11.212Z,21.40
2022-09-13T09:28:40.245Z,21.50
2022-09-13T09:31:26.763Z,21.50
2022-09-13T09:34:16.913Z,21.50
2022-09-13T09:37:08.077Z,21.70
2022-09-13T09:39:39.002Z,21.90
2022-09-13T09:42:17.352Z,22.20
2022-09-13T09:44:51.358Z,22.30
2022-09-13T09:47:30.163Z,22.20
2022-09-13T09:50:25.693Z,22.00
2022-09-13T09:53:09.860Z,22.30
2022-09-13T09:56:06.077Z,22.20
2022-09-13T09:58:42.858Z,22.30
2022-09-13T10:01:29.984Z,22.40
2022-09-13T10:04:19.781Z,22.40
2022-09-13T10:06:47.074Z,22.20
2022-09-13T10:09:13.735Z,22.20
2022-09-13T10:11:56.372Z,22.30
2022-09-13T10:14:35.186Z,22.40
2022-09-13T10:17:06.823Z,22.40
2022-09-13T10:19:33.668Z,22.40
2022-09-13T10:22:06.264Z,22.40
2022-09-13T10:24:35.658Z,22.40
2022-09-13T10:27:04.071Z,22.50
2022-09-13T10:29:31.767Z,22.60
2022-09-13T10:32:03.597Z,22.70
2022-09-13T10:34:34.034Z,22.60
2022-09-13T10:37:17.632Z,22.60
2022-09-13T10:39:58.653Z,22.60
2022-09-13T10:42:28.057Z,22.60
2022-09-13T10:45:06.317Z,22.60
2022-09-13T10:47:48.258Z,22.70
2022-09-13T10:50:29.245Z,22.80
2022-09-13T10:52:57.795Z,23.00
2022-09-13T10:55:32.797Z,23.10
2022-09-13T10:58:02.421Z,23.10
2022-09-13T11:00:32.427Z,23.00
2022-09-13T11:03:08.178Z,23.10
2022-09-13T11:06:05.667Z,23.00
2022-09-13T11:08:32.642Z,23.00
2022-09-13T11:11:02.095Z,23.10
2022-09-13T11:13:31.691Z,23.20
2022-09-13T11:16:18.941Z,23.10
2022-09-13T11:18:51.462Z,23.10
2022-09-13T11:24:06.305Z,23.30
2022-09-13T11:27:09.218Z,23.50
2022-09-13T11:30:10.700Z,23.50
2022-09-13T11:32:52.041Z,23.60
2022-09-13T11:35:30.934Z,23.80
2022-09-13T11:38:03.611Z,24.10
2022-09-13T11:40:41.747Z,24.00
2022-09-13T11:43:36.134Z,24.10
2022-09-13T11:46:05.805Z,24.20
2022-09-13T11:49:01.515Z,24.20
2022-09-13T11:51:53.563Z,24.20
2022-09-13T11:54:25.934Z,24.20
2022-09-13T11:57:07.930Z,24.40
2022-09-13T11:59:57.577Z,24.50
2022-09-13T12:02:40.612Z,24.60
2022-09-13T12:05:23.844Z,24.50
2022-09-13T12:08:24.074Z,24.40
2022-09-13T12:10:55.468Z,24.20
2022-09-13T12:13:26.687Z,24.30
2022-09-13T12:15:57.727Z,24.40
2022-09-13T12:19:01.747Z,24.50
2022-09-13T12:32:07.516Z,24.90
2022-09-13T12:35:31.157Z,24.80
2022-09-13T12:38:12.366Z,24.80
2022-09-13T12:41:02.073Z,24.70
2022-09-13T12:43:56.714Z,24.70
2022-09-13T12:46:39.589Z,24.70
2022-09-13T12:49:12.138Z,24.80
2022-09-13T12:52:15.957Z,24.80
2022-09-13T12:54:45.464Z,24.90
2022-09-13T12:57:38.552Z,24.80
2022-09-13T13:00:22.205Z,25.00
2022-09-13T13:03:01.258Z,25.00
2022-09-13T13:05:35.571Z,24.90
2022-09-13T13:08:23.447Z,24.90
2022-09-13T13:11:12.437Z,24.90
2022-09-13T13:13:53.923Z,24.90
2022-09-13T13:16:31.593Z,24.90
2022-09-13T13:19:03.622Z,24.90
2022-09-13T13:21:40.496Z,24.80
2022-09-13T13:24:33.512Z,24.70
2022-09-13T13:27:00.364Z,24.80
2022-09-13T13:29:30.479Z,24.80
2022-09-13T13:32:07.908Z,24.90
2022-09-13T13:34:42.282Z,24.90
2022-09-13T13:37:08.950Z,25.00
2022-09-13T13:39:39.988Z,25.10
2022-09-13T13:42:22.459Z,25.10
2022-09-13T13:44:54.899Z,25.00
2022-09-13T13:47:21.576Z,25.20
2022-09-13T13:49:52.570Z,25.30
2022-09-13T13:52:22.414Z,25.30
2022-09-13T13:57:30.132Z,25.50
2022-09-13T14:00:13.513Z,25.70
2022-09-13T14:02:50.487Z,25.80
2022-09-13T14:05:46.774Z,26.00
2022-09-13T14:08:22.836Z,26.10
2022-09-13T14:10:56.307Z,26.00
2022-09-13T14:13:47.169Z,26.10
2022-09-13T14:17:17.985Z,26.10
2022-09-13T14:19:48.825Z,25.90
2022-09-13T14:22:21.389Z,25.80
2022-09-13T14:24:50.708Z,25.70
2022-09-13T14:27:33.716Z,25.60
2022-09-13T14:30:18.074Z,25.50
2022-09-13T14:32:53.856Z,25.50
2022-09-13T14:35:31.994Z,25.40
2022-09-13T14:38:23.297Z,25.40
2022-09-13T14:40:52.413Z,25.40
2022-09-13T14:45:54.910Z,25.40
2022-09-13T14:48:27.872Z,25.30
2022-09-13T14:53:27.745Z,25.10
2022-09-13T16:01:41.135Z,23.90
2022-09-13T16:04:07.846Z,23.80
2022-09-13T16:06:35.245Z,23.60
2022-09-13T16:09:02.446Z,23.50
2022-09-13T16:11:29.146Z,23.40
2022-09-13T16:13:57.975Z,23.50
2022-09-13T16:16:27.218Z,23.50
2022-09-13T16:18:56.356Z,23.50
2022-09-13T16:23:52.554Z,23.30
2022-09-13T16:28:48.688Z,22.90
2022-09-13T16:31:16.616Z,23.10
2022-09-13T16:33:43.765Z,22.90
2022-09-13T16:38:39.813Z,22.60
2022-09-13T16:43:34.331Z,22.40
2022-09-13T16:46:07.763Z,22.20
2022-09-13T16:48:34.510Z,22.00
2022-09-13T16:51:11.727Z,21.90
2022-09-13T17:03:38.219Z,21.20
2022-09-13T17:06:07.351Z,21.20
2022-09-13T17:08:36.054Z,21.10
2022-09-13T17:11:11.284Z,21.00
2022-09-13T17:13:39.291Z,20.90
2022-09-13T17:16:17.305Z,20.90
2022-09-13T17:18:44.235Z,20.80
2022-09-13T17:21:13.379Z,20.70
2022-09-13T17:23:40.065Z,20.70
2022-09-13T17:26:09.227Z,20.70
2022-09-13T17:28:36.652Z,20.70
2022-09-13T17:31:03.539Z,20.60
2022-09-13T17:33:30.365Z,20.60
2022-09-13T17:36:08.254Z,20.50
2022-09-13T17:38:36.200Z,20.50
2022-09-13T17:41:08.820Z,20.50
2022-09-13T17:43:36.793Z,20.50
2022-09-13T17:46:07.848Z,20.50
2022-09-13T17:48:34.956Z,20.40
2022-09-13T17:51:12.700Z,20.40
2022-09-13T17:53:46.050Z,20.40
2022-09-13T17:56:18.763Z,20.30
2022-09-13T17:58:45.926Z,20.40
2022-09-13T18:01:12.752Z,20.30
2022-09-13T18:03:39.551Z,20.30
2022-09-13T18:06:10.471Z,20.30
2022-09-13T18:08:39.739Z,20.30
2022-09-13T18:11:22.192Z,20.20
2022-09-13T18:13:49.406Z,20.20
2022-09-13T18:16:22.580Z,20.20
2022-09-13T18:18:51.327Z,20.20
2022-09-13T18:21:25.162Z,20.20
2022-09-13T18:23:54.374Z,20.20
2022-09-13T18:26:23.269Z,20.20
2022-09-13T18:29:01.506Z,20.20
2022-09-13T18:31:29.704Z,20.20
2022-09-13T18:33:58.955Z,20.20
2022-09-13T18:36:26.990Z,20.20
2022-09-13T18:38:56.925Z,20.20
2022-09-13T18:41:28.646Z,20.20
2022-09-13T18:43:56.317Z,20.20
2022-09-13T18:46:25.468Z,20.20
2022-09-13T18:48:54.616Z,20.10
2022-09-13T18:51:30.432Z,20.20
2022-09-13T18:53:58.683Z,20.20
2022-09-13T18:56:28.348Z,20.20
2022-09-13T18:58:58.911Z,20.10
2022-09-13T19:01:31.963Z,20.00
2022-09-13T19:04:00.063Z,20.10
2022-09-13T19:06:32.883Z,20.10
2022-09-13T19:09:00.807Z,20.10
2022-09-13T19:11:48.651Z,20.10
2022-09-13T19:14:25.517Z,20.10
2022-09-13T19:16:54.598Z,20.10
2022-09-13T19:19:23.650Z,20.10
2022-09-13T19:21:52.596Z,20.00
2022-09-13T19:24:24.358Z,20.00
2022-09-13T19:26:56.302Z,20.00
2022-09-13T19:29:26.700Z,20.00
2022-09-13T19:31:55.749Z,20.00
